Time;durP1;ratioP1;P1;durP2;ratioP2;P2;SDS_P1;SDS_P2;PMS_P1;PMS_P2;Temp;Humidity;BMP_temperature;BMP_pressure;BME280_temperature;BME280_humidity;BME280_pressure;Samples;Min_cycle;Max_cycle;Signal;HPM_P1;HPM_P2
2024/04/21 00:00:51;;;;;;;;;8.50;7.00;;;;;8.16;53.81;102378.03;5311331;26;44012;-73
2024/04/21 00:03:16;;;;;;;;;17.50;8.00;;;;;8.10;53.96;102376.78;5311357;26;59172;-72
2024/04/21 00:05:42;;;;;;;;;10.00;7.50;;;;;8.07;53.82;102377.03;5310925;26;56992;-72
2024/04/21 00:08:07;;;;;;;;;15.00;10.00;;;;;8.12;54.03;102388.06;5279888;26;47919;-72
2024/04/21 00:10:33;;;;;;;;;8.25;7.25;;;;;8.10;53.80;102383.84;5308198;26;44074;-72
2024/04/21 00:12:58;;;;;;;;;10.50;8.00;;;;;8.06;54.18;102377.13;5306758;26;58269;-72
2024/04/21 00:15:24;;;;;;;;;8.50;6.25;;;;;8.00;54.23;102358.19;5306103;26;58423;-78
2024/04/21 00:17:49;;;;;;;;;11.25;7.25;;;;;8.02;54.25;102366.81;5313331;26;44140;-72
2024/04/21 00:20:15;;;;;;;;;13.25;9.75;;;;;7.97;54.02;102355.00;5308425;26;52259;-73
2024/04/21 00:22:40;;;;;;;;;11.50;7.00;;;;;7.98;53.96;102357.50;5312714;26;57856;-72
2024/04/21 00:25:06;;;;;;;;;13.00;10.00;;;;;8.09;54.73;102379.53;5310761;26;59462;-73
2024/04/21 00:27:31;;;;;;;;;11.00;8.75;;;;;7.88;54.64;102359.22;5315827;26;44038;-73
2024/04/21 00:29:56;;;;;;;;;18.25;10.50;;;;;7.92;54.53;102365.91;5315443;26;47275;-73
2024/04/21 00:32:22;;;;;;;;;8.00;8.00;;;;;7.87;54.47;102354.91;5313634;26;57578;-73
2024/04/21 00:34:50;;;;;;;;;14.00;9.25;;;;;7.95;54.69;102376.22;5311857;26;60271;-72
2024/04/21 00:37:15;;;;;;;;;10.75;8.75;;;;;7.82;54.46;102357.09;5314530;26;44005;-73
2024/04/21 00:39:41;;;;;;;;;12.50;9.75;;;;;7.91;55.19;102373.97;5309107;26;59108;-73
2024/04/21 00:42:06;;;;;;;;;14.75;7.75;;;;;7.71;55.28;102342.97;5310432;26;44095;-73
2024/04/21 00:44:32;;;;;;;;;10.25;7.75;;;;;7.73;55.12;102343.69;5311148;26;58465;-73
2024/04/21 00:46:57;;;;;;;;;11.75;10.00;;;;;7.72;55.20;102349.94;5311033;26;43937;-72
2024/04/21 00:49:23;;;;;;;;;12.75;10.00;;;;;7.68;55.24;102337.94;5287044;26;44038;-73
2024/04/21 00:51:48;;;;;;;;;12.50;10.00;;;;;7.68;55.49;102335.31;5247111;26;44060;-72
2024/04/21 00:54:13;;;;;;;;;11.25;7.50;;;;;7.62;55.52;102327.03;5255485;26;56401;-72
2024/04/21 00:56:39;;;;;;;;;11.50;9.75;;;;;7.65;55.33;102332.91;5279833;26;55529;-73
2024/04/21 00:59:05;;;;;;;;;11.50;8.25;;;;;7.65;55.80;102329.41;5306670;26;44059;-72
2024/04/21 01:01:30;;;;;;;;;15.50;10.50;;;;;7.59;55.11;102321.03;5279937;26;44126;-73
2024/04/21 01:03:56;;;;;;;;;14.75;11.00;;;;;7.57;55.08;102319.47;5316158;26;60787;-72
2024/04/21 01:06:22;;;;;;;;;14.25;10.00;;;;;7.54;55.50;102317.09;5311301;26;44389;-73
2024/04/21 01:08:47;;;;;;;;;13.75;9.75;;;;;7.51;55.74;102312.06;5278726;26;44060;-72
2024/04/21 01:11:19;;;;;;;;;18.25;15.75;;;;;7.50;56.08;102315.66;5310106;26;46805;-72
2024/04/21 01:13:44;;;;;;;;;15.75;12.50;;;;;7.47;56.26;102314.13;5313414;26;45286;-72
2024/04/21 01:16:10;;;;;;;;;10.50;9.75;;;;;7.41;55.85;102309.34;5311182;26;44046;-72
2024/04/21 01:18:35;;;;;;;;;13.25;11.00;;;;;7.37;56.62;102305.28;5312870;26;44160;-72
2024/04/21 01:21:01;;;;;;;;;14.75;7.00;;;;;7.50;56.54;102329.72;5304864;26;44057;-72
2024/04/21 01:23:26;;;;;;;;;13.50;10.50;;;;;7.35;56.12;102308.03;5309392;26;54460;-72
2024/04/21 01:25:51;;;;;;;;;16.00;7.00;;;;;7.33;56.28;102306.50;5296900;26;51380;-72
2024/04/21 01:28:17;;;;;;;;;10.25;7.00;;;;;7.23;56.49;102291.44;5310169;26;44162;-72
2024/04/21 01:30:42;;;;;;;;;14.00;10.00;;;;;7.19;56.26;102286.50;5298653;26;44062;-72
2024/04/21 01:33:07;;;;;;;;;14.75;9.50;;;;;7.23;56.38;102295.84;5304569;26;55319;-73
2024/04/21 01:35:34;;;;;;;;;11.00;8.00;;;;;7.20;56.59;102299.59;5309051;26;58275;-72
2024/04/21 01:37:59;;;;;;;;;14.00;10.00;;;;;7.14;56.89;102289.50;5311868;26;44083;-72
2024/04/21 01:40:25;;;;;;;;;11.25;9.00;;;;;7.12;56.49;102288.78;5302642;26;57989;-72
2024/04/21 01:42:50;;;;;;;;;10.75;7.25;;;;;7.11;56.85;102292.38;5313244;26;59289;-71
2024/04/21 01:45:16;;;;;;;;;9.00;7.25;;;;;7.04;56.58;102283.28;5325611;26;44053;-72
2024/04/21 01:47:41;;;;;;;;;10.25;9.00;;;;;7.09;56.31;102289.88;5316952;26;43942;-73
2024/04/21 01:50:07;;;;;;;;;12.75;6.50;;;;;7.20;56.84;102309.28;5286676;26;56095;-73
2024/04/21 01:52:32;;;;;;;;;9.50;6.25;;;;;7.06;56.82;102297.19;5318660;26;44032;-74
2024/04/21 01:54:58;;;;;;;;;10.50;7.25;;;;;7.02;56.63;102279.94;5289145;26;44120;-73
2024/04/21 01:57:23;;;;;;;;;12.00;5.25;;;;;7.15;55.75;102294.66;5327682;26;45743;-74
2024/04/21 01:59:49;;;;;;;;;9.25;6.50;;;;;7.14;56.73;102303.53;5338546;26;44064;-73
2024/04/21 02:02:14;;;;;;;;;10.25;8.25;;;;;6.98;56.05;102274.09;5331739;26;44074;-72
2024/04/21 02:04:39;;;;;;;;;14.00;6.50;;;;;7.10;56.12;102299.47;5338162;26;57529;-72
2024/04/21 02:07:09;;;;;;;;;9.75;4.50;;;;;6.92;56.42;102267.50;5340302;26;43810;-74
2024/04/21 02:09:35;;;;;;;;;4.00;4.00;;;;;6.98;56.94;102276.72;5324688;26;43515;-72
2024/04/21 02:12:00;;;;;;;;;12.00;6.25;;;;;6.94;56.38;102275.31;5325345;26;45407;-73
2024/04/21 02:14:26;;;;;;;;;10.00;3.50;;;;;6.92;56.21;102272.78;5327121;26;56521;-73
2024/04/21 02:16:51;;;;;;;;;9.00;5.75;;;;;6.89;55.85;102257.19;5330656;26;47763;-75
2024/04/21 02:19:16;;;;;;;;;8.50;5.00;;;;;6.91;55.73;102265.00;5328946;26;54575;-73
2024/04/21 02:21:42;;;;;;;;;5.50;5.25;;;;;6.88;56.99;102257.34;5333496;26;51128;-73
2024/04/21 02:24:07;;;;;;;;;8.50;5.00;;;;;6.89;56.22;102265.09;5339483;26;43881;-73
2024/04/21 02:26:33;;;;;;;;;5.50;4.50;;;;;6.88;56.74;102252.88;5331631;26;43431;-73
2024/04/21 02:28:58;;;;;;;;;5.00;3.00;;;;;6.89;56.50;102265.09;5340728;26;43709;-75
2024/04/21 02:31:24;;;;;;;;;8.00;6.75;;;;;6.94;56.24;102278.75;5307759;26;53901;-73
2024/04/21 02:33:49;;;;;;;;;9.50;7.50;;;;;6.82;56.30;102262.13;5310045;26;43994;-74
2024/04/21 02:36:16;;;;;;;;;8.00;5.00;;;;;6.97;56.92;102282.97;5348743;26;43528;-73
2024/04/21 02:38:42;;;;;;;;;6.25;5.50;;;;;6.82;56.40;102264.78;5343184;26;43670;-73
2024/04/21 02:41:07;;;;;;;;;8.75;5.50;;;;;6.82;56.58;102264.78;5354130;26;58750;-73
2024/04/21 02:43:33;;;;;;;;;5.50;3.25;;;;;6.74;56.73;102253.97;5346757;26;62844;-73
2024/04/21 02:46:00;;;;;;;;;10.00;7.75;;;;;6.71;56.87;102249.81;5333467;26;44091;-73
2024/04/21 02:48:29;;;;;;;;;8.50;5.00;;;;;6.74;57.16;102269.78;5355485;26;43454;-74
2024/04/21 02:50:54;;;;;;;;;11.00;6.00;;;;;6.78;56.47;102286.22;5328977;26;44734;-73
2024/04/21 02:53:20;;;;;;;;;11.75;7.25;;;;;6.84;56.53;102288.38;5285488;27;43581;-73
2024/04/21 02:55:45;;;;;;;;;6.75;6.00;;;;;6.67;56.37;102261.53;5322905;26;56833;-73
2024/04/21 02:58:10;;;;;;;;;5.50;5.00;;;;;6.80;57.09;102279.84;5291269;26;64930;-73
2024/04/21 03:00:39;;;;;;;;;6.50;4.75;;;;;6.65;56.15;102260.81;5327115;26;57887;-73
2024/04/21 03:03:04;;;;;;;;;5.50;5.00;;;;;6.62;56.75;102254.94;5333600;26;44540;-72
2024/04/21 03:05:30;;;;;;;;;5.00;4.25;;;;;6.63;56.21;102259.25;5331284;26;43967;-73
2024/04/21 03:07:56;;;;;;;;;9.00;4.00;;;;;6.64;57.26;102250.38;5335665;26;43844;-72
2024/04/21 03:10:21;;;;;;;;;6.75;4.00;;;;;6.58;56.54;102241.19;5327042;26;44435;-72
2024/04/21 03:12:46;;;;;;;;;9.50;6.00;;;;;6.61;57.21;102246.22;5343865;26;55362;-72
2024/04/21 03:15:12;;;;;;;;;8.00;6.00;;;;;6.64;56.75;102251.25;5331481;26;48219;-72
2024/04/21 03:17:37;;;;;;;;;5.75;3.75;;;;;6.76;57.21;102267.03;5330530;26;49412;-72
2024/04/21 03:20:03;;;;;;;;;8.75;5.00;;;;;6.60;56.97;102234.00;5329194;26;45450;-72
2024/04/21 03:22:28;;;;;;;;;7.75;5.00;;;;;6.60;56.98;102241.91;5331483;26;43593;-73
2024/04/21 03:24:54;;;;;;;;;13.75;3.25;;;;;6.60;57.32;102238.41;5334267;26;50235;-73
2024/04/21 03:27:19;;;;;;;;;8.50;4.75;;;;;6.63;56.74;102248.72;5334422;26;51476;-73
2024/04/21 03:29:47;;;;;;;;;8.25;5.00;;;;;6.61;57.28;102240.94;5341592;26;58823;-74
2024/04/21 03:32:14;;;;;;;;;6.00;4.25;;;;;6.61;56.86;102240.94;5330763;26;43681;-73
2024/04/21 03:34:40;;;;;;;;;10.00;3.00;;;;;6.62;56.74;102241.78;5339443;26;43719;-73
2024/04/21 03:37:05;;;;;;;;;5.50;4.50;;;;;6.73;57.27;102262.03;5295957;26;64556;-72
2024/04/21 03:39:30;;;;;;;;;4.75;4.25;;;;;6.79;56.55;102266.81;5328066;26;51156;-73
2024/04/21 03:41:56;;;;;;;;;9.75;5.00;;;;;6.73;56.79;102251.47;5327584;26;43658;-73
2024/04/21 03:44:22;;;;;;;;;9.00;5.00;;;;;6.80;56.46;102257.94;5303215;26;48115;-73
2024/04/21 03:46:47;;;;;;;;;5.00;3.75;;;;;6.75;57.19;102249.56;5300167;26;44004;-73
2024/04/21 03:49:12;;;;;;;;;6.25;4.00;;;;;6.69;56.89;102235.91;5268444;26;44747;-73
2024/04/21 03:51:38;;;;;;;;;10.75;6.00;;;;;6.68;56.59;102239.50;5335921;26;59373;-73
2024/04/21 03:54:03;;;;;;;;;5.50;4.00;;;;;6.70;57.29;102240.22;5325873;26;54372;-73
2024/04/21 03:56:29;;;;;;;;;6.00;5.00;;;;;6.71;56.80;102244.53;5295183;26;60554;-73
2024/04/21 03:58:54;;;;;;;;;4.00;4.00;;;;;6.66;56.95;102235.28;5327539;26;52772;-74
2024/04/21 04:01:19;;;;;;;;;4.00;4.00;;;;;6.79;56.87;102254.44;5347221;26;43625;-73
2024/04/21 04:03:45;;;;;;;;;8.00;5.00;;;;;6.69;57.35;102232.41;5328384;26;52680;-73
2024/04/21 04:06:10;;;;;;;;;6.50;4.00;;;;;6.79;56.90;102243.91;5293447;26;43649;-73
2024/04/21 04:08:39;;;;;;;;;5.50;5.25;;;;;6.68;56.88;102230.75;5286462;26;70985;-73
2024/04/21 04:11:04;;;;;;;;;8.50;4.00;;;;;6.65;57.45;102220.44;5315092;26;51547;-73
2024/04/21 04:13:29;;;;;;;;;10.50;5.00;;;;;6.62;57.47;102218.91;5324959;26;43698;-73
2024/04/21 04:15:55;;;;;;;;;3.00;3.00;;;;;6.63;57.27;102212.66;5325541;26;43554;-72
2024/04/21 04:18:20;;;;;;;;;5.00;2.00;;;;;6.64;57.51;102214.34;5326932;26;56249;-72
2024/04/21 04:20:46;;;;;;;;;7.50;5.00;;;;;6.60;57.79;102204.16;5325073;26;56477;-73
2024/04/21 04:23:11;;;;;;;;;5.50;3.25;;;;;6.59;57.27;102207.75;5328283;26;60629;-73
2024/04/21 04:25:37;;;;;;;;;7.75;4.00;;;;;6.53;57.47;102206.47;5339980;26;43716;-74
2024/04/21 04:28:02;;;;;;;;;5.75;3.50;;;;;6.68;56.72;102228.09;5330373;26;61241;-73
2024/04/21 04:30:27;;;;;;;;;5.25;3.25;;;;;6.55;57.54;102205.38;5329330;26;43713;-73
2024/04/21 04:32:53;;;;;;;;;6.25;3.75;;;;;6.63;57.16;102230.25;5329703;26;52285;-73
2024/04/21 04:35:18;;;;;;;;;7.75;2.00;;;;;6.60;56.89;102228.72;5329777;26;48956;-74
2024/04/21 04:37:44;;;;;;;;;5.00;2.00;;;;;6.60;56.68;102234.00;5336151;26;68714;-73
2024/04/21 04:40:11;;;;;;;;;6.50;4.50;;;;;6.40;56.88;102207.41;5328751;26;56387;-72
2024/04/21 04:42:36;;;;;;;;;6.00;4.50;;;;;6.46;57.29;102218.44;5339500;26;44322;-73
2024/04/21 04:45:01;;;;;;;;;5.50;3.75;;;;;6.40;57.76;102201.31;5300226;26;55605;-73
2024/04/21 04:47:27;;;;;;;;;6.25;2.50;;;;;6.37;56.98;102202.38;5340040;26;44293;-73
2024/04/21 04:49:52;;;;;;;;;4.25;3.00;;;;;6.39;57.81;102207.53;5328626;26;63230;-73
2024/04/21 04:52:18;;;;;;;;;5.25;2.00;;;;;6.39;57.60;102218.06;5332701;26;53348;-73
2024/04/21 04:54:43;;;;;;;;;2.75;1.50;;;;;6.53;57.82;102230.19;5277072;26;52633;-73
2024/04/21 04:57:08;;;;;;;;;5.50;2.00;;;;;6.40;57.68;102207.41;5315221;26;51719;-72
2024/04/21 04:59:34;;;;;;;;;6.50;2.00;;;;;6.37;57.89;102207.63;5321501;26;57035;-75
2024/04/21 05:01:59;;;;;;;;;8.00;1.75;;;;;6.45;57.37;102214.97;5329248;26;46591;-73
2024/04/21 05:04:25;;;;;;;;;3.00;1.50;;;;;6.43;57.92;102208.97;5329405;26;55608;-72
2024/04/21 05:06:50;;;;;;;;;6.25;2.25;;;;;6.60;57.91;102233.16;5332431;26;44966;-73
2024/04/21 05:09:16;;;;;;;;;4.50;1.50;;;;;6.59;57.68;102226.19;5329058;26;46626;-72
2024/04/21 05:11:41;;;;;;;;;2.25;2.00;;;;;6.51;57.75;102211.84;5327250;26;43908;-74
2024/04/21 05:14:07;;;;;;;;;5.50;1.00;;;;;6.67;58.37;102236.97;5326780;26;43759;-73
2024/04/21 05:16:32;;;;;;;;;4.00;1.00;;;;;6.59;57.98;102215.66;5326774;26;56712;-73
2024/04/21 05:18:58;;;;;;;;;2.50;2.00;;;;;6.59;57.67;102210.38;5330612;26;43828;-73
2024/04/21 05:21:23;;;;;;;;;2.25;1.00;;;;;6.76;58.28;102225.69;5327961;26;58071;-73
2024/04/21 05:23:48;;;;;;;;;1.00;1.00;;;;;6.66;57.00;102208.94;5335724;26;57504;-73
2024/04/21 05:26:14;;;;;;;;;4.25;1.50;;;;;6.69;57.30;102212.19;5330444;26;57255;-73
2024/04/21 05:28:39;;;;;;;;;9.75;2.25;;;;;6.85;57.77;102237.31;5336519;26;43369;-73
2024/04/21 05:31:04;;;;;;;;;3.50;2.25;;;;;6.71;58.04;102212.03;5328964;26;48381;-73
2024/04/21 05:33:30;;;;;;;;;1.00;1.00;;;;;6.85;57.68;102227.63;5333955;26;55653;-74
2024/04/21 05:35:55;;;;;;;;;5.50;2.00;;;;;6.78;57.50;102217.66;5333800;26;43965;-73
2024/04/21 05:38:21;;;;;;;;;4.00;1.00;;;;;6.73;57.71;102212.75;5332611;26;57182;-73
2024/04/21 05:40:46;;;;;;;;;1.00;1.00;;;;;6.76;57.07;102211.69;5321877;26;44040;-73
2024/04/21 05:43:12;;;;;;;;;5.25;3.00;;;;;6.92;57.50;102240.31;5322949;26;61923;-73
2024/04/21 05:45:38;;;;;;;;;8.25;2.50;;;;;6.80;58.10;102226.28;5315780;26;44105;-73
2024/04/21 05:48:04;;;;;;;;;6.75;2.25;;;;;6.75;57.20;102223.19;5326401;26;62802;-73
2024/04/21 05:50:29;;;;;;;;;5.75;4.50;;;;;6.91;57.02;102246.53;5315968;26;43905;-73
2024/04/21 05:52:54;;;;;;;;;5.25;4.00;;;;;6.90;58.10;102250.97;5306825;26;46357;-73
2024/04/21 05:55:20;;;;;;;;;9.00;5.00;;;;;6.74;57.35;102222.34;5316166;26;47613;-73
2024/04/21 05:57:45;;;;;;;;;9.00;4.25;;;;;6.72;58.27;102213.72;5315127;26;49038;-73
2024/04/21 06:00:11;;;;;;;;;9.75;4.75;;;;;6.84;57.73;102236.50;5308505;26;43921;-73
2024/04/21 06:02:36;;;;;;;;;4.75;2.25;;;;;6.90;57.99;102240.41;5312693;26;43943;-73
2024/04/21 06:05:03;;;;;;;;;9.00;3.00;;;;;6.75;57.49;102215.28;5312626;26;44069;-73
2024/04/21 06:07:28;;;;;;;;;6.00;4.75;;;;;6.94;57.05;102244.47;5307630;26;43899;-73
2024/04/21 06:09:54;;;;;;;;;2.00;2.00;;;;;6.83;57.28;102218.13;5322648;26;43561;-73
2024/04/21 06:12:19;;;;;;;;;6.25;2.50;;;;;6.88;57.53;102229.16;5285034;26;55130;-73
2024/04/21 06:14:44;;;;;;;;;4.75;2.00;;;;;6.90;57.65;102221.97;5316608;26;57058;-73
2024/04/21 06:17:10;;;;;;;;;2.75;2.00;;;;;6.94;58.20;102227.84;5312908;26;52913;-73
2024/04/21 06:19:35;;;;;;;;;3.50;2.00;;;;;6.93;57.90;102224.34;5311533;26;44802;-73
2024/04/21 06:22:01;;;;;;;;;3.50;2.00;;;;;7.00;57.55;102224.69;5328930;26;44010;-73
2024/04/21 06:24:26;;;;;;;;;2.25;1.00;;;;;7.02;58.05;102227.19;5323875;26;43873;-73
2024/04/21 06:26:51;;;;;;;;;5.00;2.00;;;;;7.21;57.26;102248.50;5324223;26;55134;-73
2024/04/21 06:29:17;;;;;;;;;3.25;1.75;;;;;7.08;57.91;102222.28;5327864;26;49039;-75
2024/04/21 06:31:42;;;;;;;;;3.00;1.75;;;;;7.16;57.58;102232.19;5325712;26;56001;-74
2024/04/21 06:34:11;;;;;;;;;8.25;2.75;;;;;7.17;57.83;102230.41;5287006;26;44487;-73
2024/04/21 06:36:37;;;;;;;;;2.00;2.00;;;;;7.22;57.58;102234.34;5318456;26;44213;-74
2024/04/21 06:39:02;;;;;;;;;4.00;2.00;;;;;7.29;57.24;102240.78;5314190;26;50006;-74
2024/04/21 06:41:27;;;;;;;;;5.50;2.50;;;;;7.30;57.42;102236.34;5311538;26;54515;-74
2024/04/21 06:43:53;;;;;;;;;4.25;2.00;;;;;7.43;57.39;102252.84;5322032;26;52036;-74
2024/04/21 06:46:18;;;;;;;;;5.00;1.75;;;;;7.42;57.28;102248.53;5324592;26;58870;-73
2024/04/21 06:48:44;;;;;;;;;10.75;4.50;;;;;7.48;56.79;102251.63;5313401;26;44035;-71
2024/04/21 06:51:09;;;;;;;;;10.75;6.00;;;;;7.61;57.00;102256.72;5319759;26;44005;-73
2024/04/21 06:53:35;;;;;;;;;11.00;3.50;;;;;7.65;56.48;102259.00;5302224;26;55391;-74
2024/04/21 06:56:00;;;;;;;;;1.50;1.50;;;;;7.53;57.32;102233.59;5316496;26;53566;-74
2024/04/21 06:58:25;;;;;;;;;5.50;2.00;;;;;7.57;57.04;102232.38;5322107;26;52769;-73
2024/04/21 07:00:51;;;;;;;;;6.25;2.25;;;;;7.64;56.65;102232.72;5335974;26;65169;-73
2024/04/21 07:03:16;;;;;;;;;6.50;3.00;;;;;7.66;56.72;102226.34;5325249;26;54521;-73
2024/04/21 07:05:42;;;;;;;;;9.50;4.00;;;;;7.77;56.46;102243.09;5329942;26;55740;-73
2024/04/21 07:08:07;;;;;;;;;6.75;1.25;;;;;7.80;56.86;102240.19;5327655;26;43921;-73
2024/04/21 07:10:32;;;;;;;;;5.00;2.50;;;;;8.01;56.35;102251.56;5316543;26;44145;-73
2024/04/21 07:12:58;;;;;;;;;3.50;2.00;;;;;7.97;56.09;102244.06;5328188;26;56115;-73
2024/04/21 07:15:23;;;;;;;;;2.25;2.00;;;;;8.13;56.23;102252.34;5330849;26;55712;-73
2024/04/21 07:17:48;;;;;;;;;4.50;1.00;;;;;8.09;56.07;102234.22;5317731;26;44131;-73
2024/04/21 07:20:14;;;;;;;;;3.50;2.25;;;;;8.16;56.71;102238.03;5308911;26;44016;-74
2024/04/21 07:22:40;;;;;;;;;3.00;3.00;;;;;8.21;56.20;102224.44;5288262;26;44822;-73
2024/04/21 07:25:07;;;;;;;;;5.50;3.00;;;;;8.34;56.72;102238.25;5309021;26;44038;-73
2024/04/21 07:27:32;;;;;;;;;6.25;3.25;;;;;8.41;56.22;102242.03;5313231;26;44361;-73
2024/04/21 07:29:58;;;;;;;;;1.00;1.00;;;;;8.51;56.31;102250.03;5283214;26;43840;-73
2024/04/21 07:32:23;;;;;;;;;2.50;2.00;;;;;8.54;56.14;102248.94;5316158;26;44147;-73
2024/04/21 07:34:49;;;;;;;;;9.50;2.00;;;;;8.52;56.17;102242.94;5308094;26;57086;-73
2024/04/21 07:37:14;;;;;;;;;1.75;1.75;;;;;8.42;55.56;102229.66;5314044;26;49888;-73
2024/04/21 07:39:39;;;;;;;;;5.00;2.50;;;;;8.39;56.56;102220.19;5319424;26;52807;-73
2024/04/21 07:42:05;;;;;;;;;2.00;2.00;;;;;8.43;56.37;102221.59;5312443;26;44062;-73
2024/04/21 07:44:30;;;;;;;;;4.00;2.00;;;;;8.44;55.96;102220.63;5314472;26;44214;-73
2024/04/21 07:46:56;;;;;;;;;5.00;3.00;;;;;8.46;56.26;102223.16;5316443;26;44015;-73
2024/04/21 07:49:21;;;;;;;;;2.50;1.25;;;;;8.57;56.42;102233.66;5279394;26;63351;-73
2024/04/21 07:51:47;;;;;;;;;1.75;1.50;;;;;8.74;56.31;102244.53;5323140;26;65801;-73
2024/04/21 07:54:12;;;;;;;;;2.00;2.00;;;;;8.85;55.93;102235.66;5311792;26;47134;-73
2024/04/21 07:56:37;;;;;;;;;2.00;1.25;;;;;8.94;55.90;102234.84;5316679;26;58644;-72
2024/04/21 07:59:03;;;;;;;;;3.50;2.00;;;;;9.03;55.45;102236.66;5315313;26;57786;-73
2024/04/21 08:01:28;;;;;;;;;7.00;3.00;;;;;9.06;55.87;102224.13;5333717;26;44005;-73
2024/04/21 08:03:54;;;;;;;;;2.50;1.75;;;;;9.20;55.67;102215.78;5319423;26;43697;-73
2024/04/21 08:06:19;;;;;;;;;1.25;0.75;;;;;9.34;54.76;102196.00;5295549;26;51058;-76
2024/04/21 08:08:44;;;;;;;;;2.75;1.75;;;;;9.57;54.53;102217.72;5319012;26;63764;-73
2024/04/21 08:11:10;;;;;;;;;3.25;1.00;;;;;9.67;53.65;102204.47;5277381;26;44825;-74
2024/04/21 08:13:35;;;;;;;;;2.50;1.00;;;;;9.81;54.32;102208.47;5318526;26;44108;-73
2024/04/21 08:16:01;;;;;;;;;7.00;2.00;;;;;10.05;53.45;102225.69;5320318;26;54718;-74
2024/04/21 08:18:26;;;;;;;;;1.75;1.25;;;;;10.10;52.71;102215.50;5293436;26;44029;-73
2024/04/21 08:20:51;;;;;;;;;2.00;0.50;;;;;10.17;52.32;102207.81;5314131;26;56058;-73
2024/04/21 08:23:17;;;;;;;;;2.25;0.75;;;;;10.26;52.08;102203.47;5320196;26;51868;-73
2024/04/21 08:25:45;;;;;;;;;3.00;1.00;;;;;10.45;52.39;102235.22;5316225;26;44096;-73
2024/04/21 08:28:11;;;;;;;;;1.25;0.75;;;;;10.46;50.99;102220.13;5303752;26;67014;-73
2024/04/21 08:30:37;;;;;;;;;5.50;0.00;;;;;10.52;50.60;102214.22;5313466;26;44772;-73
2024/04/21 08:33:02;;;;;;;;;1.00;1.00;;;;;10.64;50.99;102233.44;5317375;26;54934;-73
2024/04/21 08:35:28;;;;;;;;;1.00;1.00;;;;;10.66;50.61;102228.00;5325497;26;44206;-75
2024/04/21 08:37:53;;;;;;;;;3.75;1.00;;;;;10.59;49.88;102214.47;5295055;26;43727;-73
2024/04/21 08:40:19;;;;;;;;;1.00;1.00;;;;;10.66;50.34;102228.81;5321517;26;51425;-73
2024/04/21 08:42:44;;;;;;;;;3.75;0.00;;;;;10.61;50.17;102210.72;5291203;26;43713;-73
2024/04/21 08:45:09;;;;;;;;;4.75;1.00;;;;;10.86;50.67;102223.38;5291759;26;43905;-74
2024/04/21 08:47:35;;;;;;;;;1.00;1.00;;;;;10.85;50.27;102219.06;5328410;26;55377;-73
2024/04/21 08:50:01;;;;;;;;;4.00;1.00;;;;;10.91;49.40;102197.22;5323433;26;43884;-73
2024/04/21 08:52:30;;;;;;;;;1.00;1.00;;;;;11.07;49.39;102208.03;5323879;26;43809;-73
2024/04/21 08:54:55;;;;;;;;;3.00;1.00;;;;;11.17;49.92;102226.50;5291367;26;43578;-71
2024/04/21 08:57:21;;;;;;;;;2.00;0.25;;;;;11.13;48.66;102227.00;5331561;26;61556;-72
2024/04/21 08:59:46;;;;;;;;;1.50;1.00;;;;;10.98;50.02;102222.19;5294987;26;61176;-73
2024/04/21 09:02:12;;;;;;;;;1.75;0.25;;;;;10.95;48.99;102230.44;5289138;26;43661;-72
2024/04/21 09:04:41;;;;;;;;;1.00;0.75;;;;;10.97;49.67;102225.00;5331947;26;43599;-70
2024/04/21 09:07:07;;;;;;;;;0.00;0.00;;;;;11.03;48.87;102219.09;5287415;26;44033;-72
2024/04/21 09:09:32;;;;;;;;;2.50;0.75;;;;;11.14;48.03;102233.97;5314333;26;44193;-71
2024/04/21 09:11:58;;;;;;;;;0.00;0.00;;;;;11.14;49.02;102224.16;5279921;26;44125;-71
2024/04/21 09:14:23;;;;;;;;;3.00;2.00;;;;;11.14;47.91;102205.59;5306230;26;55094;-70
2024/04/21 09:16:49;;;;;;;;;2.25;2.00;;;;;11.48;48.43;102215.50;5302436;26;65874;-71
2024/04/21 09:19:14;;;;;;;;;2.25;0.75;;;;;11.56;47.98;102211.25;5309622;26;44952;-73
2024/04/21 09:21:40;;;;;;;;;1.00;1.00;;;;;11.60;47.61;102201.97;5304941;26;65360;-72
2024/04/21 09:24:07;;;;;;;;;2.25;1.75;;;;;11.84;48.06;102222.56;5283474;26;56080;-71
2024/04/21 09:26:33;;;;;;;;;1.25;0.50;;;;;12.00;46.42;102211.22;5292180;26;43983;-71
2024/04/21 09:28:58;;;;;;;;;3.00;1.00;;;;;12.01;47.49;102201.44;5312610;26;44487;-71
2024/04/21 09:31:26;;;;;;;;;1.00;1.00;;;;;11.99;46.55;102206.03;5251069;27;60850;-71
2024/04/21 09:33:52;;;;;;;;;3.00;1.75;;;;;12.00;47.32;102219.19;5282665;26;44363;-71
2024/04/21 09:36:17;;;;;;;;;2.25;2.25;;;;;11.94;46.22;102203.84;5308309;26;44068;-72
2024/04/21 09:38:42;;;;;;;;;3.00;2.00;;;;;11.86;47.54;102215.28;5315621;26;44146;-73
2024/04/21 09:41:08;;;;;;;;;4.00;2.00;;;;;11.77;46.97;102210.91;5280270;26;60754;-71
2024/04/21 09:43:34;;;;;;;;;2.50;1.00;;;;;11.66;46.86;102206.66;5317727;26;44258;-71
2024/04/21 09:46:00;;;;;;;;;1.75;0.25;;;;;11.54;47.47;102199.94;5254409;26;44457;-71
2024/04/21 09:48:27;;;;;;;;;3.00;1.00;;;;;11.42;47.03;102205.50;5310899;26;45338;-72
2024/04/21 09:50:52;;;;;;;;;3.00;1.00;;;;;11.46;47.07;102206.00;5304865;26;43930;-71
2024/04/21 09:53:17;;;;;;;;;3.00;2.00;;;;;11.46;46.54;102201.56;5307544;26;44084;-71
2024/04/21 09:55:45;;;;;;;;;3.00;1.25;;;;;11.57;46.62;102204.94;5320035;26;43948;-76
2024/04/21 09:58:12;;;;;;;;;0.50;0.50;;;;;11.76;47.65;102196.75;5265561;26;44762;-73
2024/04/21 10:00:37;;;;;;;;;1.50;1.25;;;;;11.88;46.36;102192.03;5316621;26;44749;-72
2024/04/21 10:03:03;;;;;;;;;3.75;2.00;;;;;12.04;45.07;102201.94;5283320;26;44201;-74
2024/04/21 10:05:28;;;;;;;;;8.75;2.75;;;;;12.00;44.77;102189.94;5290593;26;43882;-72
2024/04/21 10:07:55;;;;;;;;;3.25;2.00;;;;;12.09;46.25;102185.53;5289297;26;44763;-72
2024/04/21 10:10:20;;;;;;;;;2.00;2.00;;;;;12.35;44.79;102184.63;5308310;26;44162;-73
2024/04/21 10:12:46;;;;;;;;;3.00;1.25;;;;;12.48;45.51;102185.00;5274871;26;54597;-72
2024/04/21 10:15:11;;;;;;;;;4.00;1.00;;;;;12.52;44.65;102178.38;5314236;26;44230;-72
2024/04/21 10:17:37;;;;;;;;;3.25;2.50;;;;;12.44;43.96;102150.91;5294659;26;44271;-72
2024/04/21 10:20:04;;;;;;;;;2.50;2.00;;;;;12.50;45.59;102172.38;5325764;26;62640;-72
2024/04/21 10:22:31;;;;;;;;;2.25;2.25;;;;;12.51;45.31;102170.53;5322637;26;43486;-71
2024/04/21 10:24:56;;;;;;;;;2.00;2.00;;;;;12.47;45.17;102163.88;5295070;26;43645;-72
2024/04/21 10:27:22;;;;;;;;;6.50;2.50;;;;;12.49;43.66;102168.03;5342928;26;43722;-72
2024/04/21 10:29:47;;;;;;;;;4.00;2.00;;;;;12.48;45.21;102168.22;5323135;26;43649;-73
2024/04/21 10:32:14;;;;;;;;;1.25;1.00;;;;;12.47;45.04;102162.03;5318672;26;44566;-72
2024/04/21 10:34:47;;;;;;;;;4.00;2.50;;;;;12.53;45.30;102168.56;5286824;26;43980;-72
2024/04/21 10:37:15;;;;;;;;;2.25;2.00;;;;;12.61;44.69;102152.59;5312846;26;45121;-72
2024/04/21 10:39:41;;;;;;;;;5.50;3.00;;;;;12.64;44.58;102156.78;5337910;26;43621;-72
2024/04/21 10:42:07;;;;;;;;;3.00;2.00;;;;;12.60;44.09;102153.59;5329670;26;43527;-72
2024/04/21 10:44:33;;;;;;;;;2.00;2.00;;;;;12.55;44.36;102153.25;5281315;26;43793;-73
2024/04/21 10:46:59;;;;;;;;;3.00;1.00;;;;;12.39;43.95;102138.94;5298510;26;44713;-72
2024/04/21 10:49:24;;;;;;;;;2.75;2.00;;;;;12.33;44.53;102144.91;5346362;26;43957;-71
2024/04/21 10:51:50;;;;;;;;;2.00;2.00;;;;;12.30;45.17;102150.53;5326561;26;43803;-71
2024/04/21 10:54:16;;;;;;;;;1.75;1.75;;;;;12.22;44.59;102148.69;5326687;26;44008;-72
2024/04/21 10:56:42;;;;;;;;;3.75;3.25;;;;;12.20;44.62;102128.59;5325712;26;44411;-71
2024/04/21 10:59:08;;;;;;;;;1.50;1.50;;;;;12.35;45.59;102126.97;5327131;26;61658;-71
2024/04/21 11:01:33;;;;;;;;;2.00;2.00;;;;;12.50;44.83;102113.88;5327254;26;44019;-71
2024/04/21 11:04:01;;;;;;;;;2.25;2.25;;;;;12.77;45.59;102108.38;5329493;26;44032;-71
2024/04/21 11:06:26;;;;;;;;;3.75;2.00;;;;;12.88;44.38;102102.75;5331526;26;43821;-71
2024/04/21 11:08:52;;;;;;;;;2.50;2.50;;;;;12.83;43.91;102092.59;5291275;26;43994;-72
2024/04/21 11:11:17;;;;;;;;;3.00;3.00;;;;;12.88;44.41;102112.56;5284937;26;60478;-71
2024/04/21 11:13:42;;;;;;;;;7.00;4.00;;;;;12.77;44.85;102111.91;5294023;26;61345;-71
2024/04/21 11:16:11;;;;;;;;;6.75;4.75;;;;;12.67;45.54;102119.22;5325248;26;56161;-72
2024/04/21 11:18:40;;;;;;;;;5.25;4.00;;;;;12.63;45.97;102145.28;5326983;26;43652;-71
2024/04/21 11:21:06;;;;;;;;;4.75;2.00;;;;;12.73;46.26;102120.34;5296658;26;44521;-71